Time;durP1;ratioP1;P1;durP2;ratioP2;P2;SDS_P1;SDS_P2;PMS_P1;PMS_P2;Temp;Humidity;BMP_temperature;BMP_pressure;BME280_temperature;BME280_humidity;BME280_pressure;Samples;Min_cycle;Max_cycle;Signal;HPM_P1;HPM_P2
2022/02/26 01:02:22;;;;;;;13.55;3.60;;;4.80;99.90;;;;;;5008668;28;20217;-85
2022/02/26 01:11:27;;;;;;;12.88;3.90;;;4.50;99.90;;;;;;4997884;28;20223;-85
2022/02/26 01:24:09;;;;;;;18.17;4.72;;;4.70;99.90;;;;;;4952542;29;20254;-83
2022/02/26 01:43:37;;;;;;;;;;;;;;;;;;;;;
2022/02/26 02:06:12;;;;;;;16.83;4.75;;;3.00;99.90;;;;;;5004598;23;20254;-85
2022/02/26 02:08:42;;;;;;;18.88;5.28;;;4.80;99.90;;;;;;5018780;28;20207;-85
2022/02/26 02:11:09;;;;;;;17.15;3.28;;;4.80;99.90;;;;;;5026716;28;20239;-83
2022/02/26 02:13:36;;;;;;;14.88;4.20;;;4.80;99.90;;;;;;5030802;28;20208;-84
2022/02/26 02:16:03;;;;;;;15.82;4.38;;;4.80;99.90;;;;;;5033877;28;20220;-84
2022/02/26 02:18:29;;;;;;;16.35;4.40;;;4.80;99.90;;;;;;5033179;28;20204;-84
2022/02/26 02:20:57;;;;;;;16.08;3.97;;;4.80;99.90;;;;;;5030747;28;20208;-85
2022/02/26 02:23:26;;;;;;;20.15;4.30;;;4.90;99.90;;;;;;5021359;28;20300;-85
2022/02/26 02:25:53;;;;;;;12.35;3.88;;;4.80;99.90;;;;;;5020818;28;20287;-85
2022/02/26 02:28:21;;;;;;;17.23;4.72;;;4.80;99.90;;;;;;5020227;28;20257;-85
2022/02/26 02:30:48;;;;;;;16.35;4.93;;;4.90;99.90;;;;;;5020804;28;20206;-85
2022/02/26 02:33:15;;;;;;;17.80;4.60;;;4.80;99.90;;;;;;5019986;28;20231;-85
2022/02/26 02:35:43;;;;;;;14.18;3.30;;;4.80;99.90;;;;;;5019085;28;20287;-85
2022/02/26 02:38:11;;;;;;;14.10;3.83;;;4.80;99.90;;;;;;5019216;28;20310;-84
2022/02/26 02:40:41;;;;;;;20.48;4.80;;;4.90;99.90;;;;;;5019772;28;20209;-84
2022/02/26 02:43:09;;;;;;;19.83;3.95;;;4.80;99.90;;;;;;5020174;28;20212;-85
2022/02/26 02:45:37;;;;;;;15.35;4.93;;;4.80;99.90;;;;;;5019171;28;20262;-85
2022/02/26 02:48:04;;;;;;;18.08;5.68;;;4.80;99.90;;;;;;5018093;28;20196;-85
2022/02/26 02:50:31;;;;;;;19.60;5.10;;;4.80;99.90;;;;;;5018457;28;20274;-84
2022/02/26 02:52:59;;;;;;;20.48;4.57;;;4.80;99.90;;;;;;5018342;28;20227;-85
2022/02/26 02:55:26;;;;;;;13.70;4.80;;;4.60;99.90;;;;;;5018086;28;20244;-84
2022/02/26 02:57:55;;;;;;;20.33;3.85;;;4.80;99.90;;;;;;5018443;28;20266;-84
2022/02/26 03:00:22;;;;;;;18.25;5.88;;;4.80;99.90;;;;;;5032717;28;20228;-84
2022/02/26 03:02:50;;;;;;;14.20;4.90;;;4.90;99.90;;;;;;5034273;28;20223;-83
2022/02/26 03:05:18;;;;;;;13.98;4.75;;;4.90;99.90;;;;;;5033552;28;20220;-84
2022/02/26 03:07:45;;;;;;;19.52;4.40;;;4.90;99.90;;;;;;5034308;28;20208;-84
2022/02/26 03:10:12;;;;;;;14.35;4.15;;;4.90;99.90;;;;;;5025285;28;20270;-85
2022/02/26 03:12:39;;;;;;;20.73;5.72;;;4.80;99.90;;;;;;5021132;28;20220;-85
2022/02/26 03:15:08;;;;;;;14.15;4.00;;;4.90;99.90;;;;;;5020145;28;20228;-84
2022/02/26 03:17:36;;;;;;;21.85;4.63;;;4.90;99.90;;;;;;5019899;28;20216;-85
2022/02/26 03:20:03;;;;;;;16.35;4.00;;;4.90;99.90;;;;;;5019381;28;20208;-85
2022/02/26 03:22:30;;;;;;;19.65;4.90;;;4.90;99.90;;;;;;5018528;28;20204;-84
2022/02/26 03:24:56;;;;;;;12.48;4.72;;;4.90;99.90;;;;;;5023928;28;20231;-84
2022/02/26 03:27:23;;;;;;;11.07;5.20;;;5.00;99.90;;;;;;5028444;28;20227;-84
2022/02/26 03:29:50;;;;;;;18.02;6.15;;;4.70;99.90;;;;;;5019266;28;20295;-84
2022/02/26 03:32:18;;;;;;;8.73;4.43;;;4.80;99.90;;;;;;5032987;28;20212;-83
2022/02/26 03:34:45;;;;;;;18.67;5.13;;;4.80;99.90;;;;;;5041870;28;20235;-83
2022/02/26 03:37:12;;;;;;;15.25;4.60;;;4.90;99.90;;;;;;5041493;28;20208;-84
2022/02/26 03:39:39;;;;;;;24.13;5.15;;;4.90;99.90;;;;;;5029667;28;20307;-83
2022/02/26 03:42:08;;;;;;;12.60;4.15;;;4.80;99.90;;;;;;5021185;28;20212;-84
2022/02/26 03:44:36;;;;;;;25.27;5.30;;;4.80;99.90;;;;;;5021521;28;20616;-83
2022/02/26 03:47:04;;;;;;;14.15;4.53;;;4.60;99.90;;;;;;5022435;28;20254;-84
2022/02/26 03:49:32;;;;;;;14.77;4.85;;;4.60;99.90;;;;;;5038334;28;20215;-84
2022/02/26 03:51:59;;;;;;;21.83;4.80;;;4.50;99.90;;;;;;5039732;28;20231;-84
2022/02/26 03:54:26;;;;;;;18.40;5.00;;;4.60;99.90;;;;;;5040303;28;20216;-83
2022/02/26 03:56:53;;;;;;;18.10;4.75;;;4.70;99.90;;;;;;5038222;28;20278;-84
2022/02/26 03:59:20;;;;;;;18.85;6.13;;;4.80;99.90;;;;;;5035163;28;20235;-83
2022/02/26 04:01:46;;;;;;;16.98;6.70;;;5.00;99.90;;;;;;5036099;28;20204;-83
2022/02/26 04:04:13;;;;;;;14.45;5.15;;;5.30;99.90;;;;;;5026660;28;20235;-84
2022/02/26 04:06:41;;;;;;;17.70;5.22;;;4.80;99.90;;;;;;5025550;28;20296;-85
2022/02/26 04:09:08;;;;;;;22.10;4.88;;;4.70;99.90;;;;;;5036336;28;20215;-84
2022/02/26 04:11:34;;;;;;;13.25;4.35;;;4.70;99.90;;;;;;5034990;28;20255;-84
2022/02/26 04:14:01;;;;;;;19.98;5.70;;;4.50;99.90;;;;;;5033231;28;20292;-86
2022/02/26 04:16:27;;;;;;;21.13;5.63;;;4.50;99.90;;;;;;5028199;28;20233;-85
2022/02/26 04:18:54;;;;;;;22.05;5.05;;;4.30;99.90;;;;;;5022698;28;20610;-85
2022/02/26 04:21:22;;;;;;;21.40;4.90;;;4.30;99.90;;;;;;5022019;28;20239;-84
2022/02/26 04:23:50;;;;;;;14.07;4.82;;;4.40;99.90;;;;;;5020685;28;20758;-85
2022/02/26 04:26:17;;;;;;;29.70;5.53;;;4.40;99.90;;;;;;5021401;28;20224;-85
2022/02/26 04:28:43;;;;;;;14.95;6.20;;;4.50;99.90;;;;;;5020459;28;20617;-85
2022/02/26 04:31:10;;;;;;;18.35;5.22;;;4.40;99.90;;;;;;5020544;28;20200;-85
2022/02/26 04:33:37;;;;;;;15.65;5.65;;;4.40;99.90;;;;;;5020160;28;20598;-85
2022/02/26 04:36:04;;;;;;;19.88;4.47;;;4.50;99.90;;;;;;5019975;28;20239;-85
2022/02/26 04:38:30;;;;;;;14.30;4.93;;;4.50;99.90;;;;;;5020146;28;20231;-85
2022/02/26 04:41:00;;;;;;;16.58;4.97;;;4.50;99.90;;;;;;5020240;28;20227;-84
2022/02/26 04:43:27;;;;;;;17.10;5.05;;;4.50;99.90;;;;;;5019509;28;20287;-85
2022/02/26 04:45:53;;;;;;;13.55;4.75;;;4.50;99.90;;;;;;5020307;28;20251;-85
2022/02/26 04:48:21;;;;;;;18.90;4.97;;;4.40;99.90;;;;;;5019653;28;20200;-85
2022/02/26 04:50:48;;;;;;;13.68;4.15;;;4.30;99.90;;;;;;5019403;28;20200;-85
2022/02/26 04:53:15;;;;;;;21.77;5.95;;;4.50;99.90;;;;;;5024882;28;20200;-84
2022/02/26 04:55:42;;;;;;;18.35;4.45;;;4.50;99.90;;;;;;5030814;28;20224;-84
2022/02/26 04:58:11;;;;;;;21.15;4.65;;;4.50;99.90;;;;;;5026812;28;20208;-83
2022/02/26 05:00:39;;;;;;;16.30;4.18;;;4.50;99.90;;;;;;5021648;28;20200;-84
2022/02/26 05:03:06;;;;;;;22.35;4.40;;;4.50;99.90;;;;;;5020001;28;20246;-84
2022/02/26 05:05:33;;;;;;;21.52;4.75;;;4.40;99.90;;;;;;5020709;28;20247;-85
2022/02/26 05:07:59;;;;;;;21.92;4.80;;;4.60;99.90;;;;;;5019644;28;20192;-85
2022/02/26 05:10:26;;;;;;;8.55;3.58;;;4.50;99.90;;;;;;5019379;28;20201;-85
2022/02/26 05:12:52;;;;;;;13.88;4.15;;;4.50;99.90;;;;;;5019464;28;20232;-85
2022/02/26 05:15:21;;;;;;;10.65;4.75;;;4.60;99.90;;;;;;5020552;28;20255;-84
2022/02/26 05:17:47;;;;;;;25.63;4.80;;;4.60;99.90;;;;;;5024127;28;20215;-84
2022/02/26 05:20:15;;;;;;;10.57;4.30;;;4.50;99.90;;;;;;5037874;28;20215;-83
2022/02/26 05:22:42;;;;;;;22.38;4.05;;;4.60;99.90;;;;;;5028048;28;20228;-84
2022/02/26 05:25:11;;;;;;;16.65;4.75;;;4.70;99.90;;;;;;5020082;28;20235;-83
2022/02/26 05:27:38;;;;;;;13.52;5.55;;;4.60;99.90;;;;;;5035497;28;20264;-82
2022/02/26 05:30:06;;;;;;;13.85;5.10;;;4.60;99.90;;;;;;5039841;28;20196;-84
2022/02/26 05:32:34;;;;;;;20.30;5.10;;;4.50;99.90;;;;;;5036464;28;20243;-83
2022/02/26 05:35:01;;;;;;;10.57;4.57;;;4.50;99.90;;;;;;5020641;28;20278;-84
2022/02/26 05:37:27;;;;;;;22.02;4.57;;;4.50;99.90;;;;;;5020949;28;20647;-84
2022/02/26 05:39:54;;;;;;;16.73;3.40;;;4.50;99.90;;;;;;5022367;28;20207;-84
2022/02/26 05:42:21;;;;;;;16.88;5.03;;;4.60;99.90;;;;;;5024363;28;20223;-84
2022/02/26 05:44:47;;;;;;;19.50;5.70;;;4.70;99.90;;;;;;5024865;28;20225;-84
2022/02/26 05:47:14;;;;;;;14.63;4.65;;;4.50;99.90;;;;;;5026093;28;20540;-85
2022/02/26 05:49:42;;;;;;;19.70;4.38;;;4.60;99.90;;;;;;5023398;28;20300;-84
2022/02/26 05:52:09;;;;;;;11.73;4.28;;;4.50;99.90;;;;;;5021831;28;20276;-84
2022/02/26 05:54:36;;;;;;;22.08;5.60;;;4.50;99.90;;;;;;5020012;28;20845;-85
2022/02/26 05:57:04;;;;;;;14.95;5.95;;;4.70;99.90;;;;;;5021395;28;20296;-84
2022/02/26 05:59:31;;;;;;;21.13;5.20;;;4.60;99.90;;;;;;5021180;28;20810;-84
2022/02/26 06:01:58;;;;;;;13.45;4.95;;;4.70;99.90;;;;;;5021097;28;20438;-85
2022/02/26 06:04:25;;;;;;;12.80;3.92;;;4.60;99.90;;;;;;5031056;28;20192;-85
2022/02/26 06:06:53;;;;;;;13.00;4.45;;;4.90;99.90;;;;;;5028400;28;20208;-84
2022/02/26 06:09:20;;;;;;;30.60;4.75;;;4.90;99.90;;;;;;5031867;28;20210;-83
2022/02/26 06:11:46;;;;;;;20.58;4.05;;;5.00;99.90;;;;;;5035386;28;20346;-83
2022/02/26 06:14:13;;;;;;;20.27;4.50;;;4.90;99.90;;;;;;5029917;28;20228;-83
2022/02/26 06:16:41;;;;;;;24.13;4.60;;;4.90;99.90;;;;;;5035351;28;20212;-83
2022/02/26 06:19:08;;;;;;;18.20;5.10;;;4.90;99.90;;;;;;5036066;28;20204;-84
2022/02/26 06:21:35;;;;;;;9.07;4.00;;;4.90;99.90;;;;;;5036827;28;20256;-85
2022/02/26 06:24:03;;;;;;;17.13;4.35;;;4.80;99.90;;;;;;5036682;28;20208;-84
2022/02/26 06:26:32;;;;;;;12.50;4.45;;;5.00;99.90;;;;;;5037064;28;20216;-84
2022/02/26 06:28:59;;;;;;;24.75;4.20;;;5.00;99.90;;;;;;5033117;28;20204;-85
2022/02/26 06:31:25;;;;;;;19.58;5.70;;;5.10;99.90;;;;;;5031747;28;20204;-83
2022/02/26 06:33:52;;;;;;;20.05;5.30;;;5.10;99.90;;;;;;5024499;28;20262;-84
2022/02/26 06:36:19;;;;;;;22.33;5.47;;;5.10;99.90;;;;;;5022816;28;20224;-84
2022/02/26 06:38:45;;;;;;;20.27;4.13;;;5.00;99.90;;;;;;5037853;28;20311;-83
2022/02/26 06:41:13;;;;;;;26.30;4.53;;;5.00;99.90;;;;;;5038372;28;20188;-82
2022/02/26 06:43:40;;;;;;;18.45;5.78;;;5.00;99.90;;;;;;5037995;28;20204;-84
2022/02/26 06:46:07;;;;;;;20.67;5.00;;;4.90;99.90;;;;;;5029186;28;20706;-85
2022/02/26 06:48:34;;;;;;;19.33;4.25;;;4.90;99.90;;;;;;5021412;28;20208;-84
2022/02/26 06:51:01;;;;;;;17.58;4.30;;;5.00;99.90;;;;;;5020564;28;20211;-82
2022/02/26 06:53:27;;;;;;;22.42;4.43;;;5.10;99.90;;;;;;5019146;28;20623;-83
2022/02/26 06:55:54;;;;;;;23.55;4.13;;;4.90;99.90;;;;;;5019577;28;20614;-84
2022/02/26 06:58:22;;;;;;;11.48;3.75;;;5.10;99.90;;;;;;5020498;28;20208;-84
2022/02/26 07:00:49;;;;;;;15.15;6.03;;;5.10;99.90;;;;;;5029153;28;20239;-83
2022/02/26 07:03:15;;;;;;;14.82;5.20;;;5.10;99.90;;;;;;5033391;28;20208;-84
2022/02/26 07:05:42;;;;;;;14.57;4.80;;;5.20;99.90;;;;;;5031377;28;20250;-85
2022/02/26 07:08:09;;;;;;;8.50;3.17;;;5.10;99.90;;;;;;5032470;28;20203;-84
2022/02/26 07:10:35;;;;;;;10.65;4.55;;;5.20;99.90;;;;;;5034661;28;20231;-85
2022/02/26 07:13:02;;;;;;;14.88;4.75;;;5.20;99.90;;;;;;5028112;28;20224;-85
2022/02/26 07:15:30;;;;;;;11.10;3.88;;;5.10;99.90;;;;;;5022064;28;20251;-84
2022/02/26 07:17:56;;;;;;;26.50;4.85;;;5.30;99.90;;;;;;5032994;28;20210;-84
2022/02/26 07:20:23;;;;;;;12.68;3.85;;;5.00;99.90;;;;;;5033155;28;20203;-84
2022/02/26 07:22:50;;;;;;;22.48;5.68;;;5.00;99.90;;;;;;5032625;28;20216;-84
2022/02/26 07:25:16;;;;;;;10.60;4.00;;;4.90;99.90;;;;;;5024403;28;20224;-84
2022/02/26 07:27:43;;;;;;;8.98;3.85;;;5.10;99.90;;;;;;5021374;28;20208;-84
2022/02/26 07:30:11;;;;;;;10.50;4.43;;;6.00;99.90;;;;;;5020024;28;20200;-84
2022/02/26 07:32:39;;;;;;;11.50;4.65;;;5.30;99.90;;;;;;5019231;28;20204;-84
2022/02/26 07:35:06;;;;;;;16.75;4.78;;;5.40;99.90;;;;;;5017766;28;20282;-86
2022/02/26 07:37:33;;;;;;;10.15;3.40;;;5.40;99.90;;;;;;5027672;28;20227;-83
2022/02/26 07:40:00;;;;;;;12.32;3.47;;;5.50;99.90;;;;;;5032349;28;20204;-84
2022/02/26 07:42:26;;;;;;;12.02;3.47;;;5.20;99.90;;;;;;5023537;28;20581;-84
2022/02/26 07:44:53;;;;;;;19.17;4.07;;;5.20;99.90;;;;;;5019612;28;20235;-84
2022/02/26 07:47:20;;;;;;;5.40;3.55;;;5.30;99.90;;;;;;5030773;28;20271;-84
2022/02/26 07:49:48;;;;;;;16.08;4.28;;;5.40;99.90;;;;;;5033534;28;20205;-85
2022/02/26 07:52:16;;;;;;;15.40;4.60;;;5.40;99.90;;;;;;5035025;28;20188;-83
2022/02/26 07:54:43;;;;;;;18.75;3.65;;;5.40;99.90;;;;;;5036095;28;20651;-82
2022/02/26 07:57:09;;;;;;;14.05;4.57;;;5.20;99.90;;;;;;5036362;28;20274;-83
2022/02/26 07:59:36;;;;;;;5.03;3.38;;;5.30;99.90;;;;;;5024599;28;20212;-84
2022/02/26 08:02:03;;;;;;;16.33;4.45;;;5.30;99.90;;;;;;5022513;28;20204;-84
2022/02/26 08:37:07;;;;;;;10.48;4.18;;;5.50;99.90;;;;;;4109641;23;20247;-87
2022/02/26 08:49:53;;;;;;;9.52;3.65;;;5.50;99.90;;;;;;5068917;23;20629;-91
2022/02/26 08:52:23;;;;;;;11.57;4.72;;;;;;;;;;5039928;28;20248;-91
2022/02/26 08:54:52;;;;;;;7.75;3.75;;;;;;;;;;5029632;28;20234;-90
2022/02/26 08:57:19;;;;;;;10.93;4.53;;;;;;;;;;5033564;28;20234;-91
2022/02/26 08:59:47;;;;;;;11.60;3.83;;;;;;;;;;5039156;28;20219;-90
2022/02/26 09:02:16;;;;;;;9.25;3.80;;;;;;;;;;5035187;28;20204;-91
2022/02/26 09:04:46;;;;;;;10.68;3.28;;;;;;;;;;5028369;28;20201;-91
2022/02/26 09:07:17;;;;;;;9.55;3.55;;;5.60;99.90;;;;;;5022964;28;20601;-91
2022/02/26 09:09:44;;;;;;;10.50;3.35;;;;;;;;;;5021026;28;20239;-91
2022/02/26 09:12:11;;;;;;;10.18;4.10;;;5.50;99.90;;;;;;5020524;28;20212;-90
2022/02/26 09:14:39;;;;;;;14.70;4.82;;;6.90;99.90;;;;;;5023036;28;20220;-90
2022/02/26 09:17:06;;;;;;;7.80;3.65;;;6.10;72.70;;;;;;5037599;28;20222;-90
2022/02/26 09:19:33;;;;;;;19.67;3.92;;;6.20;1.00;;;;;;5039782;28;20208;-91
2022/02/26 09:22:03;;;;;;;14.60;5.30;;;;;;;;;;5036184;28;20180;-90
2022/02/26 09:24:32;;;;;;;9.73;3.45;;;6.10;1.00;;;;;;5039728;28;20203;-90
2022/02/26 09:26:59;;;;;;;10.60;3.83;;;;;;;;;;5039978;28;20226;-92
2022/02/26 09:29:30;;;;;;;13.30;3.55;;;5.90;1.00;;;;;;5037487;28;20220;-91
2022/02/26 09:31:58;;;;;;;10.77;3.78;;;;;;;;;;5030289;28;20213;-90
2022/02/26 09:34:25;;;;;;;8.05;3.05;;;5.90;1.00;;;;;;5027523;28;20259;-90
2022/02/26 09:36:53;;;;;;;7.47;2.90;;;5.90;1.00;;;;;;5024922;28;20208;-90
2022/02/26 09:39:54;;;;;;;16.50;5.18;;;6.00;37.80;;;;;;5025717;28;20571;-90
2022/02/26 09:45:47;;;;;;;11.13;2.63;;;5.70;1.00;;;;;;5038246;28;20220;-92
2022/02/26 09:48:17;;;;;;;6.13;3.97;;;6.20;1.00;;;;;;5036241;28;20535;-88
2022/02/26 09:50:44;;;;;;;15.45;3.70;;;8.90;1.00;;;;;;5033277;28;20294;-83
2022/02/26 09:53:11;;;;;;;10.73;4.35;;;6.10;1.00;;;;;;5030733;28;20232;-83
2022/02/26 09:55:39;;;;;;;10.88;3.90;;;6.20;1.00;;;;;;5030628;28;20259;-83
2022/02/26 09:58:06;;;;;;;11.48;3.67;;;6.30;1.00;;;;;;5032572;28;20199;-84
2022/02/26 10:00:33;;;;;;;13.00;3.88;;;6.10;1.00;;;;;;5032587;28;20255;-83
2022/02/26 10:03:01;;;;;;;9.70;3.50;;;6.40;1.00;;;;;;5032841;28;20227;-83
2022/02/26 10:05:32;;;;;;;7.18;3.05;;;6.30;1.00;;;;;;5027706;28;20211;-89
2022/02/26 10:07:59;;;;;;;7.43;3.17;;;6.40;1.00;;;;;;5026450;28;20206;-89
2022/02/26 10:10:29;;;;;;;7.40;3.28;;;6.30;99.90;;;;;;5026916;28;20224;-89
2022/02/26 10:20:01;;;;;;;;;;;;;;;;;;;;;
2022/02/26 10:53:34;;;;;;;;;;;;;;;;;;;;;
2022/02/26 10:56:46;;;;;;;4.82;3.40;;;6.60;1.00;;;;;;5038537;28;20199;-91
2022/02/26 11:00:41;;;;;;;;;;;;;;;;;;;;;
2022/02/26 21:29:00;;;;;;;8.63;5.47;;;3.20;99.90;;;;;;4847554;29;20205;-87
2022/02/26 22:36:59;;;;;;;9.50;6.50;;;2.80;99.90;;;;;;4779309;29;20244;-87
2022/02/26 23:00:54;;;;;;;;;;;;;;;;;;;;;
2022/02/26 23:04:21;;;;;;;;;;;;;;;;;;;;;
2022/02/26 23:07:41;;;;;;;8.05;6.25;;;2.50;99.90;;;;;;4735320;30;20216;-85
2022/02/26 23:10:38;;;;;;;8.38;5.40;;;2.50;99.90;;;;;;4910841;29;20326;-86
2022/02/26 23:13:08;;;;;;;9.10;6.63;;;2.50;99.90;;;;;;4906941;29;20195;-85
2022/02/26 23:15:51;;;;;;;13.60;6.82;;;2.60;99.90;;;;;;4946153;29;20290;-85
2022/02/26 23:18:48;;;;;;;11.55;6.72;;;0.80;99.90;;;;;;4951374;29;20238;-85
2022/02/26 23:21:49;;;;;;;10.48;6.85;;;2.60;99.90;;;;;;4949278;29;20234;-88
2022/02/26 23:28:02;;;;;;;11.93;5.65;;;2.50;99.90;;;;;;4947274;29;20221;-86
2022/02/26 23:34:06;;;;;;;11.35;6.38;;;2.70;99.90;;;;;;4948170;29;20195;-85
2022/02/26 23:39:50;;;;;;;12.63;7.00;;;2.40;99.90;;;;;;4939083;29;20616;-86
2022/02/26 23:42:39;;;;;;;11.55;6.15;;;3.30;99.90;;;;;;4948523;29;20278;-86
2022/02/26 23:45:29;;;;;;;14.82;6.38;;;2.40;99.90;;;;;;4946727;29;20192;-86
2022/02/26 23:48:07;;;;;;;6.95;5.20;;;1.50;99.90;;;;;;4949319;29;20215;-87
2022/02/26 23:50:39;;;;;;;9.52;7.78;;;2.60;99.90;;;;;;4956034;29;20219;-87
2022/02/26 23:56:18;;;;;;;10.48;6.35;;;2.00;99.90;;;;;;4958293;29;20226;-87
2022/02/26 23:58:45;;;;;;;10.65;6.55;;;2.50;99.90;;;;;;4958372;29;20219;-85
